sensor_id;sensor_type;location;lat;lon;timestamp;temperature;humidity
56076;DHT22;41951;49.022;12.066;2023-11-19T00:00:23;5.40;99.90
56076;DHT22;41951;49.022;12.066;2023-11-19T00:02:49;5.40;99.90
56076;DHT22;41951;49.022;12.066;2023-11-19T00:05:14;5.40;99.90
56076;DHT22;41951;49.022;12.066;2023-11-19T00:07:40;5.40;99.90
56076;DHT22;41951;49.022;12.066;2023-11-19T00:10:10;5.40;99.90
56076;DHT22;41951;49.022;12.066;2023-11-19T00:12:38;5.40;99.90
56076;DHT22;41951;49.022;12.066;2023-11-19T00:15:04;5.40;99.90
56076;DHT22;41951;49.022;12.066;2023-11-19T00:17:30;5.50;99.90
56076;DHT22;41951;49.022;12.066;2023-11-19T00:19:55;5.50;99.90
56076;DHT22;41951;49.022;12.066;2023-11-19T00:22:21;5.50;99.90
56076;DHT22;41951;49.022;12.066;2023-11-19T00:24:47;5.50;99.90
56076;DHT22;41951;49.022;12.066;2023-11-19T00:27:13;5.50;99.90
56076;DHT22;41951;49.022;12.066;2023-11-19T00:29:38;5.50;99.90
56076;DHT22;41951;49.022;12.066;2023-11-19T00:32:04;5.40;99.90
56076;DHT22;41951;49.022;12.066;2023-11-19T00:34:31;5.50;99.90
56076;DHT22;41951;49.022;12.066;2023-11-19T00:36:56;5.40;99.90
56076;DHT22;41951;49.022;12.066;2023-11-19T00:39:22;5.40;99.90
56076;DHT22;41951;49.022;12.066;2023-11-19T00:41:48;5.40;99.90
56076;DHT22;41951;49.022;12.066;2023-11-19T00:44:13;5.40;99.90
56076;DHT22;41951;49.022;12.066;2023-11-19T00:46:39;5.40;99.90
56076;DHT22;41951;49.022;12.066;2023-11-19T00:49:05;5.40;99.90
56076;DHT22;41951;49.022;12.066;2023-11-19T00:51:31;5.40;99.90
56076;DHT22;41951;49.022;12.066;2023-11-19T00:53:57;5.40;99.90
56076;DHT22;41951;49.022;12.066;2023-11-19T00:56:23;5.40;99.90
56076;DHT22;41951;49.022;12.066;2023-11-19T00:58:49;5.40;99.90
56076;DHT22;41951;49.022;12.066;2023-11-19T01:01:15;5.40;99.90
56076;DHT22;41951;49.022;12.066;2023-11-19T01:03:40;5.40;99.90
56076;DHT22;41951;49.022;12.066;2023-11-19T01:06:06;5.40;99.90
56076;DHT22;41951;49.022;12.066;2023-11-19T01:08:33;5.40;99.90
56076;DHT22;41951;49.022;12.066;2023-11-19T01:11:01;5.40;99.90
56076;DHT22;41951;49.022;12.066;2023-11-19T01:13:27;5.40;99.90
56076;DHT22;41951;49.022;12.066;2023-11-19T01:15:53;5.40;99.90
56076;DHT22;41951;49.022;12.066;2023-11-19T01:18:18;5.40;99.90
56076;DHT22;41951;49.022;12.066;2023-11-19T01:20:44;5.40;99.90
56076;DHT22;41951;49.022;12.066;2023-11-19T01:23:10;5.40;99.90
56076;DHT22;41951;49.022;12.066;2023-11-19T01:25:35;5.40;99.90
56076;DHT22;41951;49.022;12.066;2023-11-19T01:28:01;5.40;99.90
56076;DHT22;41951;49.022;12.066;2023-11-19T01:30:27;5.40;99.90
56076;DHT22;41951;49.022;12.066;2023-11-19T01:32:53;5.40;99.90
56076;DHT22;41951;49.022;12.066;2023-11-19T01:35:19;5.30;99.90
56076;DHT22;41951;49.022;12.066;2023-11-19T01:37:44;5.30;99.90
56076;DHT22;41951;49.022;12.066;2023-11-19T01:40:10;5.40;99.90
56076;DHT22;41951;49.022;12.066;2023-11-19T01:42:40;5.40;99.90
56076;DHT22;41951;49.022;12.066;2023-11-19T01:45:07;5.40;99.90
56076;DHT22;41951;49.022;12.066;2023-11-19T01:47:35;5.40;99.90
56076;DHT22;41951;49.022;12.066;2023-11-19T01:50:02;5.40;99.90
56076;DHT22;41951;49.022;12.066;2023-11-19T01:52:32;5.40;99.90
56076;DHT22;41951;49.022;12.066;2023-11-19T01:54:59;5.40;99.90
56076;DHT22;41951;49.022;12.066;2023-11-19T01:57:25;5.40;99.90
56076;DHT22;41951;49.022;12.066;2023-11-19T01:59:52;5.40;99.90
56076;DHT22;41951;49.022;12.066;2023-11-19T02:02:19;5.30;99.90
56076;DHT22;41951;49.022;12.066;2023-11-19T02:04:51;5.30;99.90
56076;DHT22;41951;49.022;12.066;2023-11-19T02:07:17;5.30;99.90
56076;DHT22;41951;49.022;12.066;2023-11-19T02:09:43;5.30;99.90
56076;DHT22;41951;49.022;12.066;2023-11-19T02:12:31;5.30;99.90
56076;DHT22;41951;49.022;12.066;2023-11-19T02:15:01;5.30;99.90
56076;DHT22;41951;49.022;12.066;2023-11-19T02:17:29;5.30;99.90
56076;DHT22;41951;49.022;12.066;2023-11-19T02:19:56;5.30;99.90
56076;DHT22;41951;49.022;12.066;2023-11-19T02:22:22;5.30;99.90
56076;DHT22;41951;49.022;12.066;2023-11-19T02:24:51;5.30;99.90
56076;DHT22;41951;49.022;12.066;2023-11-19T02:30:06;5.30;99.90
56076;DHT22;41951;49.022;12.066;2023-11-19T02:32:34;5.30;99.90
56076;DHT22;41951;49.022;12.066;2023-11-19T02:35:01;5.20;99.90
56076;DHT22;41951;49.022;12.066;2023-11-19T02:37:26;5.30;99.90
56076;DHT22;41951;49.022;12.066;2023-11-19T02:39:53;5.20;99.90
56076;DHT22;41951;49.022;12.066;2023-11-19T02:42:19;5.20;99.90
56076;DHT22;41951;49.022;12.066;2023-11-19T02:44:45;5.20;99.90
56076;DHT22;41951;49.022;12.066;2023-11-19T02:47:11;5.20;99.90
56076;DHT22;41951;49.022;12.066;2023-11-19T02:49:37;5.20;99.90
56076;DHT22;41951;49.022;12.066;2023-11-19T02:52:03;5.20;99.90
56076;DHT22;41951;49.022;12.066;2023-11-19T02:54:30;5.20;99.90
56076;DHT22;41951;49.022;12.066;2023-11-19T02:57:00;5.20;99.90
56076;DHT22;41951;49.022;12.066;2023-11-19T02:59:27;5.20;99.90
56076;DHT22;41951;49.022;12.066;2023-11-19T03:01:54;5.20;99.90
56076;DHT22;41951;49.022;12.066;2023-11-19T03:07:43;5.30;99.90
56076;DHT22;41951;49.022;12.066;2023-11-19T03:10:09;5.20;99.90
56076;DHT22;41951;49.022;12.066;2023-11-19T03:12:39;5.30;99.90
56076;DHT22;41951;49.022;12.066;2023-11-19T03:15:05;5.30;99.90
56076;DHT22;41951;49.022;12.066;2023-11-19T03:17:31;5.30;99.90
56076;DHT22;41951;49.022;12.066;2023-11-19T03:19:56;5.30;99.90
56076;DHT22;41951;49.022;12.066;2023-11-19T03:22:22;5.30;99.90
56076;DHT22;41951;49.022;12.066;2023-11-19T03:24:50;5.30;99.90
56076;DHT22;41951;49.022;12.066;2023-11-19T03:27:16;5.20;99.90
56076;DHT22;41951;49.022;12.066;2023-11-19T03:29:42;5.20;99.90
56076;DHT22;41951;49.022;12.066;2023-11-19T03:32:07;5.20;99.90
56076;DHT22;41951;49.022;12.066;2023-11-19T03:34:33;5.20;99.90
56076;DHT22;41951;49.022;12.066;2023-11-19T03:36:58;5.20;99.90
56076;DHT22;41951;49.022;12.066;2023-11-19T03:39:24;5.20;99.90
56076;DHT22;41951;49.022;12.066;2023-11-19T03:41:50;5.20;99.90
56076;DHT22;41951;49.022;12.066;2023-11-19T03:44:16;5.20;99.90
56076;DHT22;41951;49.022;12.066;2023-11-19T03:46:42;5.10;99.90
56076;DHT22;41951;49.022;12.066;2023-11-19T03:49:07;5.10;99.90
56076;DHT22;41951;49.022;12.066;2023-11-19T03:51:33;5.10;99.90
56076;DHT22;41951;49.022;12.066;2023-11-19T03:54:00;5.10;99.90
56076;DHT22;41951;49.022;12.066;2023-11-19T03:56:26;5.10;99.90
56076;DHT22;41951;49.022;12.066;2023-11-19T03:58:52;5.10;99.90
56076;DHT22;41951;49.022;12.066;2023-11-19T04:01:18;5.10;99.90
56076;DHT22;41951;49.022;12.066;2023-11-19T04:03:43;5.10;99.90
56076;DHT22;41951;49.022;12.066;2023-11-19T04:06:09;5.10;99.90
56076;DHT22;41951;49.022;12.066;2023-11-19T04:08:35;5.10;99.90
56076;DHT22;41951;49.022;12.066;2023-11-19T04:11:02;5.20;99.90
56076;DHT22;41951;49.022;12.066;2023-11-19T04:13:28;5.20;99.90
56076;DHT22;41951;49.022;12.066;2023-11-19T04:15:53;5.20;99.90
56076;DHT22;41951;49.022;12.066;2023-11-19T04:18:19;5.20;99.90
56076;DHT22;41951;49.022;12.066;2023-11-19T04:20:44;5.10;99.90
56076;DHT22;41951;49.022;12.066;2023-11-19T04:23:10;5.10;99.90
56076;DHT22;41951;49.022;12.066;2023-11-19T04:25:36;5.10;99.90
56076;DHT22;41951;49.022;12.066;2023-11-19T04:28:02;5.00;99.90
56076;DHT22;41951;49.022;12.066;2023-11-19T04:30:28;5.00;99.90
56076;DHT22;41951;49.022;12.066;2023-11-19T04:32:53;5.00;99.90
56076;DHT22;41951;49.022;12.066;2023-11-19T04:35:19;5.00;99.90
56076;DHT22;41951;49.022;12.066;2023-11-19T04:37:45;5.00;99.90
56076;DHT22;41951;49.022;12.066;2023-11-19T04:40:11;5.00;99.90
56076;DHT22;41951;49.022;12.066;2023-11-19T04:42:37;5.00;99.90
56076;DHT22;41951;49.022;12.066;2023-11-19T04:45:06;5.00;99.90
56076;DHT22;41951;49.022;12.066;2023-11-19T04:47:33;5.10;99.90
56076;DHT22;41951;49.022;12.066;2023-11-19T04:49:58;5.10;99.90
56076;DHT22;41951;49.022;12.066;2023-11-19T04:52:24;5.10;99.90
56076;DHT22;41951;49.022;12.066;2023-11-19T04:54:49;5.10;99.90
56076;DHT22;41951;49.022;12.066;2023-11-19T04:57:15;5.10;99.90
56076;DHT22;41951;49.022;12.066;2023-11-19T04:59:41;5.00;99.90
56076;DHT22;41951;49.022;12.066;2023-11-19T05:02:07;5.00;99.90
56076;DHT22;41951;49.022;12.066;2023-11-19T05:04:33;5.00;99.90
56076;DHT22;41951;49.022;12.066;2023-11-19T05:06:59;5.00;99.90
56076;DHT22;41951;49.022;12.066;2023-11-19T05:09:24;5.00;99.90
56076;DHT22;41951;49.022;12.066;2023-11-19T05:11:50;4.90;99.90
56076;DHT22;41951;49.022;12.066;2023-11-19T05:14:15;4.90;99.90
56076;DHT22;41951;49.022;12.066;2023-11-19T05:16:41;4.90;99.90
56076;DHT22;41951;49.022;12.066;2023-11-19T05:19:08;4.90;99.90
56076;DHT22;41951;49.022;12.066;2023-11-19T05:21:34;4.90;99.90
56076;DHT22;41951;49.022;12.066;2023-11-19T05:24:02;5.00;99.90
56076;DHT22;41951;49.022;12.066;2023-11-19T05:26:30;4.90;99.90
56076;DHT22;41951;49.022;12.066;2023-11-19T05:28:55;4.90;99.90
56076;DHT22;41951;49.022;12.066;2023-11-19T05:31:21;4.90;99.90
56076;DHT22;41951;49.022;12.066;2023-11-19T05:33:47;4.90;99.90
56076;DHT22;41951;49.022;12.066;2023-11-19T05:36:12;5.00;99.90
56076;DHT22;41951;49.022;12.066;2023-11-19T05:38:38;5.00;99.90
56076;DHT22;41951;49.022;12.066;2023-11-19T05:41:04;5.00;99.90
56076;DHT22;41951;49.022;12.066;2023-11-19T05:43:31;5.10;99.90
56076;DHT22;41951;49.022;12.066;2023-11-19T05:45:56;5.10;99.90
56076;DHT22;41951;49.022;12.066;2023-11-19T05:48:22;5.10;99.90
56076;DHT22;41951;49.022;12.066;2023-11-19T05:50:48;5.10;99.90
56076;DHT22;41951;49.022;12.066;2023-11-19T05:53:15;5.10;99.90
56076;DHT22;41951;49.022;12.066;2023-11-19T05:55:41;5.00;99.90
56076;DHT22;41951;49.022;12.066;2023-11-19T05:58:14;5.10;99.90
56076;DHT22;41951;49.022;12.066;2023-11-19T06:00:41;5.00;99.90
56076;DHT22;41951;49.022;12.066;2023-11-19T06:03:10;5.00;99.90
56076;DHT22;41951;49.022;12.066;2023-11-19T06:05:35;5.00;99.90
56076;DHT22;41951;49.022;12.066;2023-11-19T06:08:01;5.00;99.90
56076;DHT22;41951;49.022;12.066;2023-11-19T06:10:27;5.00;99.90
56076;DHT22;41951;49.022;12.066;2023-11-19T06:13:00;5.00;99.90
56076;DHT22;41951;49.022;12.066;2023-11-19T06:15:26;5.00;99.90
56076;DHT22;41951;49.022;12.066;2023-11-19T06:17:52;5.00;99.90
56076;DHT22;41951;49.022;12.066;2023-11-19T06:20:18;5.00;99.90
56076;DHT22;41951;49.022;12.066;2023-11-19T06:22:45;5.00;99.90
56076;DHT22;41951;49.022;12.066;2023-11-19T06:25:11;5.00;99.90
56076;DHT22;41951;49.022;12.066;2023-11-19T06:27:37;5.00;99.90
56076;DHT22;41951;49.022;12.066;2023-11-19T06:30:03;5.00;99.90
56076;DHT22;41951;49.022;12.066;2023-11-19T06:32:29;5.10;99.90
56076;DHT22;41951;49.022;12.066;2023-11-19T06:34:54;5.00;99.90
56076;DHT22;41951;49.022;12.066;2023-11-19T06:37:20;5.10;99.90
56076;DHT22;41951;49.022;12.066;2023-11-19T06:39:46;5.10;99.90
56076;DHT22;41951;49.022;12.066;2023-11-19T06:42:11;5.00;99.90
56076;DHT22;41951;49.022;12.066;2023-11-19T06:44:37;5.10;99.90
56076;DHT22;41951;49.022;12.066;2023-11-19T06:47:02;5.10;99.90
56076;DHT22;41951;49.022;12.066;2023-11-19T06:49:28;5.10;99.90
56076;DHT22;41951;49.022;12.066;2023-11-19T06:51:53;5.10;99.90
56076;DHT22;41951;49.022;12.066;2023-11-19T06:54:19;5.10;99.90
56076;DHT22;41951;49.022;12.066;2023-11-19T06:56:44;5.10;99.90
56076;DHT22;41951;49.022;12.066;2023-11-19T06:59:10;5.10;99.90
56076;DHT22;41951;49.022;12.066;2023-11-19T07:01:36;5.10;99.90
56076;DHT22;41951;49.022;12.066;2023-11-19T07:04:02;5.10;99.90
56076;DHT22;41951;49.022;12.066;2023-11-19T07:06:35;5.10;99.90
56076;DHT22;41951;49.022;12.066;2023-11-19T07:09:02;5.00;99.90
56076;DHT22;41951;49.022;12.066;2023-11-19T07:11:35;5.00;99.90
56076;DHT22;41951;49.022;12.066;2023-11-19T07:14:02;5.00;99.90
56076;DHT22;41951;49.022;12.066;2023-11-19T07:16:28;5.00;99.90
56076;DHT22;41951;49.022;12.066;2023-11-19T07:18:53;5.00;99.90
56076;DHT22;41951;49.022;12.066;2023-11-19T07:21:19;5.10;99.90
56076;DHT22;41951;49.022;12.066;2023-11-19T07:23:45;5.10;99.90
56076;DHT22;41951;49.022;12.066;2023-11-19T07:26:12;5.00;99.90
56076;DHT22;41951;49.022;12.066;2023-11-19T07:28:37;5.10;99.90
56076;DHT22;41951;49.022;12.066;2023-11-19T07:31:05;5.00;99.90
56076;DHT22;41951;49.022;12.066;2023-11-19T07:33:33;5.00;99.90
56076;DHT22;41951;49.022;12.066;2023-11-19T07:35:59;5.00;99.90
56076;DHT22;41951;49.022;12.066;2023-11-19T07:38:24;4.90;99.90
56076;DHT22;41951;49.022;12.066;2023-11-19T07:40:50;4.90;99.90
56076;DHT22;41951;49.022;12.066;2023-11-19T07:43:15;5.00;99.90
56076;DHT22;41951;49.022;12.066;2023-11-19T07:45:41;5.00;99.90
56076;DHT22;41951;49.022;12.066;2023-11-19T07:48:09;5.00;99.90
56076;DHT22;41951;49.022;12.066;2023-11-19T07:50:34;5.00;99.90
56076;DHT22;41951;49.022;12.066;2023-11-19T07:53:00;5.00;99.90
56076;DHT22;41951;49.022;12.066;2023-11-19T07:55:27;5.00;99.90
56076;DHT22;41951;49.022;12.066;2023-11-19T07:57:53;4.20;99.90
56076;DHT22;41951;49.022;12.066;2023-11-19T08:00:18;5.00;99.90
56076;DHT22;41951;49.022;12.066;2023-11-19T08:02:45;5.00;99.90
56076;DHT22;41951;49.022;12.066;2023-11-19T08:05:10;5.00;99.90
56076;DHT22;41951;49.022;12.066;2023-11-19T08:07:37;5.00;99.90
56076;DHT22;41951;49.022;12.066;2023-11-19T08:10:04;5.00;99.90
56076;DHT22;41951;49.022;12.066;2023-11-19T08:12:30;5.00;99.90
56076;DHT22;41951;49.022;12.066;2023-11-19T08:14:56;5.00;99.90
56076;DHT22;41951;49.022;12.066;2023-11-19T08:17:23;5.00;99.90
56076;DHT22;41951;49.022;12.066;2023-11-19T08:19:49;5.00;99.90
56076;DHT22;41951;49.022;12.066;2023-11-19T08:22:15;5.00;99.90
56076;DHT22;41951;49.022;12.066;2023-11-19T08:24:42;5.10;99.90
56076;DHT22;41951;49.022;12.066;2023-11-19T08:27:08;5.10;99.90
56076;DHT22;41951;49.022;12.066;2023-11-19T08:29:34;5.10;99.90
56076;DHT22;41951;49.022;12.066;2023-11-19T08:32:01;5.10;99.90
56076;DHT22;41951;49.022;12.066;2023-11-19T08:34:27;5.10;99.90
56076;DHT22;41951;49.022;12.066;2023-11-19T08:36:52;5.20;99.90
56076;DHT22;41951;49.022;12.066;2023-11-19T08:39:19;5.20;99.90
56076;DHT22;41951;49.022;12.066;2023-11-19T08:41:46;5.20;99.90
56076;DHT22;41951;49.022;12.066;2023-11-19T08:44:12;5.20;99.90
56076;DHT22;41951;49.022;12.066;2023-11-19T08:46:38;5.20;99.90
56076;DHT22;41951;49.022;12.066;2023-11-19T08:49:05;5.20;99.90
56076;DHT22;41951;49.022;12.066;2023-11-19T08:51:30;5.30;99.90
56076;DHT22;41951;49.022;12.066;2023-11-19T08:53:56;5.30;99.90
56076;DHT22;41951;49.022;12.066;2023-11-19T08:56:22;5.20;99.90
56076;DHT22;41951;49.022;12.066;2023-11-19T08:58:48;5.30;99.90
56076;DHT22;41951;49.022;12.066;2023-11-19T09:01:14;5.30;99.90
56076;DHT22;41951;49.022;12.066;2023-11-19T09:03:39;5.30;99.90
56076;DHT22;41951;49.022;12.066;2023-11-19T09:06:05;5.30;99.90
56076;DHT22;41951;49.022;12.066;2023-11-19T09:08:31;5.30;99.90
56076;DHT22;41951;49.022;12.066;2023-11-19T09:10:57;5.30;99.90
56076;DHT22;41951;49.022;12.066;2023-11-19T09:13:22;5.30;99.90
56076;DHT22;41951;49.022;12.066;2023-11-19T09:15:48;5.30;99.90
56076;DHT22;41951;49.022;12.066;2023-11-19T09:18:13;5.40;99.90
56076;DHT22;41951;49.022;12.066;2023-11-19T09:20:39;5.40;99.90
56076;DHT22;41951;49.022;12.066;2023-11-19T09:23:05;5.40;99.90
56076;DHT22;41951;49.022;12.066;2023-11-19T09:25:31;5.40;99.90
56076;DHT22;41951;49.022;12.066;2023-11-19T09:27:57;5.50;99.90
56076;DHT22;41951;49.022;12.066;2023-11-19T09:30:22;5.50;99.90
56076;DHT22;41951;49.022;12.066;2023-11-19T09:32:48;5.50;99.90
56076;DHT22;41951;49.022;12.066;2023-11-19T09:35:14;5.50;99.90
56076;DHT22;41951;49.022;12.066;2023-11-19T09:37:40;5.60;99.90
56076;DHT22;41951;49.022;12.066;2023-11-19T09:40:06;5.60;99.90
56076;DHT22;41951;49.022;12.066;2023-11-19T09:42:44;5.60;99.90
56076;DHT22;41951;49.022;12.066;2023-11-19T09:45:17;5.60;99.90
56076;DHT22;41951;49.022;12.066;2023-11-19T09:47:46;5.70;99.90
56076;DHT22;41951;49.022;12.066;2023-11-19T09:50:19;5.70;99.90
56076;DHT22;41951;49.022;12.066;2023-11-19T09:52:45;5.80;99.90
56076;DHT22;41951;49.022;12.066;2023-11-19T09:55:11;5.80;99.90
56076;DHT22;41951;49.022;12.066;2023-11-19T09:57:39;5.90;99.90
56076;DHT22;41951;49.022;12.066;2023-11-19T10:00:06;6.00;99.90
56076;DHT22;41951;49.022;12.066;2023-11-19T10:02:34;6.20;99.90
56076;DHT22;41951;49.022;12.066;2023-11-19T10:05:06;6.30;99.90
56076;DHT22;41951;49.022;12.066;2023-11-19T10:07:32;6.30;99.90
56076;DHT22;41951;49.022;12.066;2023-11-19T10:10:02;6.40;99.90
56076;DHT22;41951;49.022;12.066;2023-11-19T10:12:29;6.50;99.90
56076;DHT22;41951;49.022;12.066;2023-11-19T10:14:56;6.50;99.90
56076;DHT22;41951;49.022;12.066;2023-11-19T10:17:36;6.60;99.90
56076;DHT22;41951;49.022;12.066;2023-11-19T10:20:02;6.60;99.90
56076;DHT22;41951;49.022;12.066;2023-11-19T10:22:29;6.60;99.90
56076;DHT22;41951;49.022;12.066;2023-11-19T10:24:55;6.60;99.90
56076;DHT22;41951;49.022;12.066;2023-11-19T10:27:24;6.70;99.90
56076;DHT22;41951;49.022;12.066;2023-11-19T10:29:49;6.70;99.90
56076;DHT22;41951;49.022;12.066;2023-11-19T10:32:15;6.70;99.90
56076;DHT22;41951;49.022;12.066;2023-11-19T10:34:40;6.80;99.90
56076;DHT22;41951;49.022;12.066;2023-11-19T10:37:07;6.80;99.90
56076;DHT22;41951;49.022;12.066;2023-11-19T10:39:52;6.80;99.90
56076;DHT22;41951;49.022;12.066;2023-11-19T10:42:21;6.90;99.90
56076;DHT22;41951;49.022;12.066;2023-11-19T10:44:46;6.90;99.90
56076;DHT22;41951;49.022;12.066;2023-11-19T10:47:14;6.90;99.90
56076;DHT22;41951;49.022;12.066;2023-11-19T10:49:40;6.90;99.90
56076;DHT22;41951;49.022;12.066;2023-11-19T10:52:08;6.90;99.90
56076;DHT22;41951;49.022;12.066;2023-11-19T10:54:35;6.90;99.90
56076;DHT22;41951;49.022;12.066;2023-11-19T10:57:02;7.00;99.90
56076;DHT22;41951;49.022;12.066;2023-11-19T10:59:30;7.00;99.90
56076;DHT22;41951;49.022;12.066;2023-11-19T11:01:57;7.00;99.90
56076;DHT22;41951;49.022;12.066;2023-11-19T11:04:25;7.00;99.90
56076;DHT22;41951;49.022;12.066;2023-11-19T11:06:54;7.00;99.90
56076;DHT22;41951;49.022;12.066;2023-11-19T11:09:21;7.10;99.90
56076;DHT22;41951;49.022;12.066;2023-11-19T11:11:50;7.00;99.90
56076;DHT22;41951;49.022;12.066;2023-11-19T11:14:18;7.10;99.90
56076;DHT22;41951;49.022;12.066;2023-11-19T11:16:47;7.10;99.90
56076;DHT22;41951;49.022;12.066;2023-11-19T11:19:15;7.20;99.90
56076;DHT22;41951;49.022;12.066;2023-11-19T11:21:44;7.20;99.90
56076;DHT22;41951;49.022;12.066;2023-11-19T11:27:43;7.30;99.90
56076;DHT22;41951;49.022;12.066;2023-11-19T11:32:51;7.50;99.90
56076;DHT22;41951;49.022;12.066;2023-11-19T11:38:08;7.60;99.90
56076;DHT22;41951;49.022;12.066;2023-11-19T11:40:34;7.70;99.90
56076;DHT22;41951;49.022;12.066;2023-11-19T11:43:01;7.80;99.90
56076;DHT22;41951;49.022;12.066;2023-11-19T11:45:38;7.90;99.90
56076;DHT22;41951;49.022;12.066;2023-11-19T11:48:15;8.00;99.90
56076;DHT22;41951;49.022;12.066;2023-11-19T11:50:53;8.00;99.90
56076;DHT22;41951;49.022;12.066;2023-11-19T11:53:20;8.00;99.90
56076;DHT22;41951;49.022;12.066;2023-11-19T11:58:13;8.00;99.90
56076;DHT22;41951;49.022;12.066;2023-11-19T12:00:42;8.00;99.90
56076;DHT22;41951;49.022;12.066;2023-11-19T12:03:09;8.10;99.90
56076;DHT22;41951;49.022;12.066;2023-11-19T12:05:47;8.10;99.90
56076;DHT22;41951;49.022;12.066;2023-11-19T12:08:13;8.10;99.90
56076;DHT22;41951;49.022;12.066;2023-11-19T12:10:48;8.20;99.90
56076;DHT22;41951;49.022;12.066;2023-11-19T12:13:16;8.20;99.90
56076;DHT22;41951;49.022;12.066;2023-11-19T12:18:29;8.40;99.90
56076;DHT22;41951;49.022;12.066;2023-11-19T12:20:56;8.50;99.90
56076;DHT22;41951;49.022;12.066;2023-11-19T12:23:26;8.60;99.90
56076;DHT22;41951;49.022;12.066;2023-11-19T12:25:52;8.70;99.90
56076;DHT22;41951;49.022;12.066;2023-11-19T12:28:18;8.80;99.90
56076;DHT22;41951;49.022;12.066;2023-11-19T12:30:44;9.00;99.90
56076;DHT22;41951;49.022;12.066;2023-11-19T12:33:11;9.40;99.90
56076;DHT22;41951;49.022;12.066;2023-11-19T12:35:41;9.60;99.90
56076;DHT22;41951;49.022;12.066;2023-11-19T12:38:07;10.00;99.90
56076;DHT22;41951;49.022;12.066;2023-11-19T12:40:33;10.10;99.90
56076;DHT22;41951;49.022;12.066;2023-11-19T12:42:59;10.30;99.90
56076;DHT22;41951;49.022;12.066;2023-11-19T12:45:34;10.40;99.90
56076;DHT22;41951;49.022;12.066;2023-11-19T12:48:08;10.50;99.90
56076;DHT22;41951;49.022;12.066;2023-11-19T12:51:07;10.60;99.90
56076;DHT22;41951;49.022;12.066;2023-11-19T12:53:53;10.60;99.90
56076;DHT22;41951;49.022;12.066;2023-11-19T12:56:24;10.60;99.90
56076;DHT22;41951;49.022;12.066;2023-11-19T12:58:50;10.80;99.90
56076;DHT22;41951;49.022;12.066;2023-11-19T13:01:19;12.20;99.90
56076;DHT22;41951;49.022;12.066;2023-11-19T13:03:46;13.20;99.90
56076;DHT22;41951;49.022;12.066;2023-11-19T13:06:13;13.00;99.90
56076;DHT22;41951;49.022;12.066;2023-11-19T13:08:43;13.10;99.90
56076;DHT22;41951;49.022;12.066;2023-11-19T13:11:11;12.90;99.90
56076;DHT22;41951;49.022;12.066;2023-11-19T13:13:56;13.00;99.90
56076;DHT22;41951;49.022;12.066;2023-11-19T13:16:22;12.70;99.90
56076;DHT22;41951;49.022;12.066;2023-11-19T13:18:47;12.40;99.90
56076;DHT22;41951;49.022;12.066;2023-11-19T13:21:13;12.20;99.90
56076;DHT22;41951;49.022;12.066;2023-11-19T13:23:39;12.00;99.90
56076;DHT22;41951;49.022;12.066;2023-11-19T13:26:04;11.90;99.90
56076;DHT22;41951;49.022;12.066;2023-11-19T13:28:31;11.90;99.90
56076;DHT22;41951;49.022;12.066;2023-11-19T13:30:56;11.90;99.90
56076;DHT22;41951;49.022;12.066;2023-11-19T13:33:22;11.90;99.90
56076;DHT22;41951;49.022;12.066;2023-11-19T13:35:47;12.10;99.90
56076;DHT22;41951;49.022;12.066;2023-11-19T13:38:13;12.10;99.90
56076;DHT22;41951;49.022;12.066;2023-11-19T13:40:38;12.10;99.90
56076;DHT22;41951;49.022;12.066;2023-11-19T13:43:04;12.10;99.90
56076;DHT22;41951;49.022;12.066;2023-11-19T13:45:30;12.10;99.90
56076;DHT22;41951;49.022;12.066;2023-11-19T13:47:56;12.10;99.90
56076;DHT22;41951;49.022;12.066;2023-11-19T13:50:21;12.10;99.90
56076;DHT22;41951;49.022;12.066;2023-11-19T13:52:48;12.10;99.90
56076;DHT22;41951;49.022;12.066;2023-11-19T13:55:14;12.10;99.90
56076;DHT22;41951;49.022;12.066;2023-11-19T13:57:41;12.10;99.90
56076;DHT22;41951;49.022;12.066;2023-11-19T14:00:11;12.20;99.90
56076;DHT22;41951;49.022;12.066;2023-11-19T14:02:47;12.10;99.90
56076;DHT22;41951;49.022;12.066;2023-11-19T14:05:15;12.00;99.90
56076;DHT22;41951;49.022;12.066;2023-11-19T14:07:43;12.00;99.90
56076;DHT22;41951;49.022;12.066;2023-11-19T14:10:09;11.90;99.90
56076;DHT22;41951;49.022;12.066;2023-11-19T14:12:37;11.90;99.90
56076;DHT22;41951;49.022;12.066;2023-11-19T14:15:04;11.80;99.90
56076;DHT22;41951;49.022;12.066;2023-11-19T14:17:33;11.80;99.90
56076;DHT22;41951;49.022;12.066;2023-11-19T14:19:59;11.80;99.90
56076;DHT22;41951;49.022;12.066;2023-11-19T14:22:25;11.80;99.90
56076;DHT22;41951;49.022;12.066;2023-11-19T14:24:50;11.70;99.90
56076;DHT22;41951;49.022;12.066;2023-11-19T14:27:16;11.70;99.90
56076;DHT22;41951;49.022;12.066;2023-11-19T14:29:45;11.70;99.90
56076;DHT22;41951;49.022;12.066;2023-11-19T14:32:11;11.70;99.90
56076;DHT22;41951;49.022;12.066;2023-11-19T14:34:36;11.60;99.90
56076;DHT22;41951;49.022;12.066;2023-11-19T14:37:02;11.60;99.90
56076;DHT22;41951;49.022;12.066;2023-11-19T14:39:27;11.70;99.90
56076;DHT22;41951;49.022;12.066;2023-11-19T14:41:59;11.70;99.90
56076;DHT22;41951;49.022;12.066;2023-11-19T14:44:29;11.60;99.90
56076;DHT22;41951;49.022;12.066;2023-11-19T14:46:55;11.50;99.90
56076;DHT22;41951;49.022;12.066;2023-11-19T14:49:20;11.50;99.90
56076;DHT22;41951;49.022;12.066;2023-11-19T14:51:46;11.40;99.90
56076;DHT22;41951;49.022;12.066;2023-11-19T14:54:11;11.40;99.90
56076;DHT22;41951;49.022;12.066;2023-11-19T14:56:39;11.50;99.90
56076;DHT22;41951;49.022;12.066;2023-11-19T14:59:05;11.40;99.90
56076;DHT22;41951;49.022;12.066;2023-11-19T15:01:31;11.30;99.90
56076;DHT22;41951;49.022;12.066;2023-11-19T15:03:56;11.30;99.90
56076;DHT22;41951;49.022;12.066;2023-11-19T15:06:25;11.30;99.90
56076;DHT22;41951;49.022;12.066;2023-11-19T15:08:56;11.20;99.90
56076;DHT22;41951;49.022;12.066;2023-11-19T15:11:22;11.20;99.90
56076;DHT22;41951;49.022;12.066;2023-11-19T15:13:48;11.10;99.90
56076;DHT22;41951;49.022;12.066;2023-11-19T15:16:14;11.10;99.90
56076;DHT22;41951;49.022;12.066;2023-11-19T15:18:40;11.10;99.90
56076;DHT22;41951;49.022;12.066;2023-11-19T15:21:06;11.00;99.90
56076;DHT22;41951;49.022;12.066;2023-11-19T15:23:33;11.00;99.90
56076;DHT22;41951;49.022;12.066;2023-11-19T15:25:59;10.90;99.90
56076;DHT22;41951;49.022;12.066;2023-11-19T15:28:24;10.90;99.90
56076;DHT22;41951;49.022;12.066;2023-11-19T15:30:50;10.90;99.90
56076;DHT22;41951;49.022;12.066;2023-11-19T15:33:15;10.90;99.90
56076;DHT22;41951;49.022;12.066;2023-11-19T15:35:41;10.80;99.90
56076;DHT22;41951;49.022;12.066;2023-11-19T15:38:06;10.80;99.90
56076;DHT22;41951;49.022;12.066;2023-11-19T15:40:35;10.80;99.90
56076;DHT22;41951;49.022;12.066;2023-11-19T15:43:01;10.80;99.90
56076;DHT22;41951;49.022;12.066;2023-11-19T15:45:27;10.80;99.90